sensor_id;sensor_type;location;lat;lon;timestamp;P1;durP1;ratioP1;P2;durP2;ratioP2
9729;SDS011;4904;49.152;11.004;2022-08-03T00:00:56;3.85;;;3.55;;
9729;SDS011;4904;49.152;11.004;2022-08-03T00:03:23;3.40;;;2.72;;
9729;SDS011;4904;49.152;11.004;2022-08-03T00:05:50;3.58;;;3.28;;
9729;SDS011;4904;49.152;11.004;2022-08-03T00:08:17;3.63;;;3.20;;
9729;SDS011;4904;49.152;11.004;2022-08-03T00:10:44;3.85;;;3.55;;
9729;SDS011;4904;49.152;11.004;2022-08-03T00:13:11;4.53;;;3.40;;
9729;SDS011;4904;49.152;11.004;2022-08-03T00:15:39;5.57;;;3.47;;
9729;SDS011;4904;49.152;11.004;2022-08-03T00:18:07;6.68;;;3.42;;
9729;SDS011;4904;49.152;11.004;2022-08-03T00:20:35;3.97;;;3.50;;
9729;SDS011;4904;49.152;11.004;2022-08-03T00:23:02;4.78;;;3.33;;
9729;SDS011;4904;49.152;11.004;2022-08-03T00:25:30;4.32;;;3.60;;
9729;SDS011;4904;49.152;11.004;2022-08-03T00:27:58;3.72;;;3.33;;
9729;SDS011;4904;49.152;11.004;2022-08-03T00:30:25;3.42;;;3.13;;
9729;SDS011;4904;49.152;11.004;2022-08-03T00:32:52;5.25;;;3.47;;
9729;SDS011;4904;49.152;11.004;2022-08-03T00:35:20;4.28;;;3.22;;
9729;SDS011;4904;49.152;11.004;2022-08-03T00:37:47;3.53;;;3.22;;
9729;SDS011;4904;49.152;11.004;2022-08-03T00:40:15;5.50;;;3.42;;
9729;SDS011;4904;49.152;11.004;2022-08-03T00:42:46;3.80;;;3.30;;
9729;SDS011;4904;49.152;11.004;2022-08-03T00:45:16;3.97;;;3.40;;
9729;SDS011;4904;49.152;11.004;2022-08-03T00:47:43;4.28;;;3.33;;
9729;SDS011;4904;49.152;11.004;2022-08-03T00:50:10;4.10;;;3.70;;
9729;SDS011;4904;49.152;11.004;2022-08-03T00:52:39;3.45;;;3.05;;
9729;SDS011;4904;49.152;11.004;2022-08-03T00:55:06;3.88;;;3.58;;
9729;SDS011;4904;49.152;11.004;2022-08-03T00:57:34;3.72;;;3.40;;
9729;SDS011;4904;49.152;11.004;2022-08-03T01:00:03;5.82;;;3.75;;
9729;SDS011;4904;49.152;11.004;2022-08-03T01:02:33;3.58;;;3.28;;
9729;SDS011;4904;49.152;11.004;2022-08-03T01:05:00;4.63;;;3.53;;
9729;SDS011;4904;49.152;11.004;2022-08-03T01:07:32;4.43;;;3.63;;
9729;SDS011;4904;49.152;11.004;2022-08-03T01:10:12;3.63;;;3.33;;
9729;SDS011;4904;49.152;11.004;2022-08-03T01:12:46;5.47;;;3.13;;
9729;SDS011;4904;49.152;11.004;2022-08-03T01:15:22;5.05;;;3.03;;
9729;SDS011;4904;49.152;11.004;2022-08-03T01:17:55;3.70;;;3.35;;
9729;SDS011;4904;49.152;11.004;2022-08-03T01:20:25;7.15;;;3.60;;
9729;SDS011;4904;49.152;11.004;2022-08-03T01:23:15;5.13;;;3.70;;
9729;SDS011;4904;49.152;11.004;2022-08-03T01:26:02;4.82;;;3.50;;
9729;SDS011;4904;49.152;11.004;2022-08-03T01:28:44;4.40;;;3.65;;
9729;SDS011;4904;49.152;11.004;2022-08-03T01:31:25;7.13;;;3.63;;
9729;SDS011;4904;49.152;11.004;2022-08-03T01:33:55;6.25;;;3.67;;
9729;SDS011;4904;49.152;11.004;2022-08-03T01:36:28;4.55;;;3.58;;
9729;SDS011;4904;49.152;11.004;2022-08-03T01:38:59;6.30;;;3.83;;
9729;SDS011;4904;49.152;11.004;2022-08-03T01:41:33;5.28;;;3.47;;
9729;SDS011;4904;49.152;11.004;2022-08-03T01:44:06;5.53;;;4.05;;
9729;SDS011;4904;49.152;11.004;2022-08-03T01:46:36;5.47;;;3.63;;
9729;SDS011;4904;49.152;11.004;2022-08-03T01:49:05;4.25;;;3.60;;
9729;SDS011;4904;49.152;11.004;2022-08-03T01:51:35;4.32;;;3.28;;
9729;SDS011;4904;49.152;11.004;2022-08-03T01:54:03;3.65;;;3.08;;
9729;SDS011;4904;49.152;11.004;2022-08-03T01:56:32;3.33;;;3.13;;
9729;SDS011;4904;49.152;11.004;2022-08-03T01:59:01;3.35;;;3.10;;
9729;SDS011;4904;49.152;11.004;2022-08-03T02:01:29;3.88;;;3.53;;
9729;SDS011;4904;49.152;11.004;2022-08-03T02:03:59;3.75;;;3.40;;
9729;SDS011;4904;49.152;11.004;2022-08-03T02:06:26;4.10;;;3.47;;
9729;SDS011;4904;49.152;11.004;2022-08-03T02:08:55;3.30;;;3.00;;
9729;SDS011;4904;49.152;11.004;2022-08-03T02:11:24;3.97;;;3.20;;
9729;SDS011;4904;49.152;11.004;2022-08-03T02:13:51;6.43;;;3.30;;
9729;SDS011;4904;49.152;11.004;2022-08-03T02:16:20;5.68;;;4.00;;
9729;SDS011;4904;49.152;11.004;2022-08-03T02:18:48;4.28;;;3.80;;
9729;SDS011;4904;49.152;11.004;2022-08-03T02:21:19;5.70;;;3.63;;
9729;SDS011;4904;49.152;11.004;2022-08-03T02:23:47;6.78;;;3.70;;
9729;SDS011;4904;49.152;11.004;2022-08-03T02:26:14;5.18;;;4.18;;
9729;SDS011;4904;49.152;11.004;2022-08-03T02:28:46;6.47;;;3.80;;
9729;SDS011;4904;49.152;11.004;2022-08-03T02:31:17;5.40;;;3.85;;
9729;SDS011;4904;49.152;11.004;2022-08-03T02:33:49;5.05;;;3.70;;
9729;SDS011;4904;49.152;11.004;2022-08-03T02:36:21;5.70;;;3.85;;
9729;SDS011;4904;49.152;11.004;2022-08-03T02:38:52;4.75;;;3.75;;
9729;SDS011;4904;49.152;11.004;2022-08-03T02:41:23;3.85;;;3.55;;
9729;SDS011;4904;49.152;11.004;2022-08-03T02:44:06;8.88;;;4.00;;
9729;SDS011;4904;49.152;11.004;2022-08-03T02:46:35;5.03;;;3.83;;
9729;SDS011;4904;49.152;11.004;2022-08-03T02:49:04;6.07;;;3.70;;
9729;SDS011;4904;49.152;11.004;2022-08-03T02:51:34;4.25;;;3.47;;
9729;SDS011;4904;49.152;11.004;2022-08-03T02:54:04;5.20;;;3.70;;
9729;SDS011;4904;49.152;11.004;2022-08-03T02:56:33;4.35;;;3.83;;
9729;SDS011;4904;49.152;11.004;2022-08-03T02:59:02;3.63;;;3.30;;
9729;SDS011;4904;49.152;11.004;2022-08-03T03:01:31;3.65;;;3.35;;
9729;SDS011;4904;49.152;11.004;2022-08-03T03:03:59;3.85;;;3.55;;
9729;SDS011;4904;49.152;11.004;2022-08-03T03:06:26;3.78;;;3.47;;
9729;SDS011;4904;49.152;11.004;2022-08-03T03:08:56;3.58;;;3.20;;
9729;SDS011;4904;49.152;11.004;2022-08-03T03:11:24;4.10;;;3.28;;
9729;SDS011;4904;49.152;11.004;2022-08-03T03:13:52;3.97;;;3.58;;
9729;SDS011;4904;49.152;11.004;2022-08-03T03:16:23;4.00;;;3.60;;
9729;SDS011;4904;49.152;11.004;2022-08-03T03:18:53;4.15;;;3.60;;
9729;SDS011;4904;49.152;11.004;2022-08-03T03:21:20;4.15;;;3.75;;
9729;SDS011;4904;49.152;11.004;2022-08-03T03:23:48;5.70;;;3.80;;
9729;SDS011;4904;49.152;11.004;2022-08-03T03:26:18;4.50;;;3.20;;
9729;SDS011;4904;49.152;11.004;2022-08-03T03:28:45;3.88;;;3.58;;
9729;SDS011;4904;49.152;11.004;2022-08-03T03:31:12;4.03;;;3.63;;
9729;SDS011;4904;49.152;11.004;2022-08-03T03:33:39;7.20;;;3.50;;
9729;SDS011;4904;49.152;11.004;2022-08-03T03:36:07;3.70;;;3.40;;
9729;SDS011;4904;49.152;11.004;2022-08-03T03:38:35;4.30;;;3.60;;
9729;SDS011;4904;49.152;11.004;2022-08-03T03:41:02;3.70;;;3.35;;
9729;SDS011;4904;49.152;11.004;2022-08-03T03:43:31;4.05;;;3.53;;
9729;SDS011;4904;49.152;11.004;2022-08-03T03:45:58;3.88;;;3.50;;
9729;SDS011;4904;49.152;11.004;2022-08-03T03:48:26;3.88;;;3.47;;
9729;SDS011;4904;49.152;11.004;2022-08-03T03:50:53;4.57;;;3.53;;
9729;SDS011;4904;49.152;11.004;2022-08-03T03:53:21;4.03;;;3.45;;
9729;SDS011;4904;49.152;11.004;2022-08-03T03:55:49;3.75;;;3.45;;
9729;SDS011;4904;49.152;11.004;2022-08-03T03:58:18;6.05;;;3.85;;
9729;SDS011;4904;49.152;11.004;2022-08-03T04:00:47;10.30;;;3.90;;
9729;SDS011;4904;49.152;11.004;2022-08-03T04:03:14;7.82;;;3.80;;
9729;SDS011;4904;49.152;11.004;2022-08-03T04:05:41;5.05;;;3.42;;
9729;SDS011;4904;49.152;11.004;2022-08-03T04:08:26;5.45;;;3.40;;
9729;SDS011;4904;49.152;11.004;2022-08-03T04:11:12;6.38;;;3.60;;
9729;SDS011;4904;49.152;11.004;2022-08-03T04:13:44;4.00;;;3.47;;
9729;SDS011;4904;49.152;11.004;2022-08-03T04:16:17;5.18;;;3.83;;
9729;SDS011;4904;49.152;11.004;2022-08-03T04:18:49;5.85;;;3.88;;
9729;SDS011;4904;49.152;11.004;2022-08-03T04:21:20;7.05;;;4.25;;
9729;SDS011;4904;49.152;11.004;2022-08-03T04:23:50;5.82;;;3.88;;
9729;SDS011;4904;49.152;11.004;2022-08-03T04:26:21;4.50;;;3.97;;
9729;SDS011;4904;49.152;11.004;2022-08-03T04:28:51;8.80;;;3.78;;
9729;SDS011;4904;49.152;11.004;2022-08-03T04:31:21;3.88;;;3.58;;
9729;SDS011;4904;49.152;11.004;2022-08-03T04:33:50;5.07;;;4.05;;
9729;SDS011;4904;49.152;11.004;2022-08-03T04:36:19;3.67;;;3.35;;
9729;SDS011;4904;49.152;11.004;2022-08-03T04:38:56;5.68;;;4.00;;
9729;SDS011;4904;49.152;11.004;2022-08-03T04:41:27;4.35;;;3.13;;
9729;SDS011;4904;49.152;11.004;2022-08-03T04:43:57;4.47;;;4.07;;
9729;SDS011;4904;49.152;11.004;2022-08-03T04:46:28;4.50;;;3.67;;
9729;SDS011;4904;49.152;11.004;2022-08-03T04:48:58;4.22;;;3.83;;
9729;SDS011;4904;49.152;11.004;2022-08-03T04:51:26;5.47;;;3.80;;
9729;SDS011;4904;49.152;11.004;2022-08-03T04:53:54;6.07;;;3.60;;
9729;SDS011;4904;49.152;11.004;2022-08-03T04:56:21;4.10;;;3.80;;
9729;SDS011;4904;49.152;11.004;2022-08-03T04:58:48;7.63;;;3.70;;
9729;SDS011;4904;49.152;11.004;2022-08-03T05:01:15;4.07;;;3.70;;
9729;SDS011;4904;49.152;11.004;2022-08-03T05:03:45;5.20;;;3.95;;
9729;SDS011;4904;49.152;11.004;2022-08-03T05:06:12;5.97;;;3.63;;
9729;SDS011;4904;49.152;11.004;2022-08-03T05:08:39;4.07;;;3.58;;
9729;SDS011;4904;49.152;11.004;2022-08-03T05:11:06;4.90;;;4.10;;
9729;SDS011;4904;49.152;11.004;2022-08-03T05:13:33;5.97;;;4.00;;
9729;SDS011;4904;49.152;11.004;2022-08-03T05:16:00;6.50;;;4.07;;
9729;SDS011;4904;49.152;11.004;2022-08-03T05:18:27;5.43;;;4.05;;
9729;SDS011;4904;49.152;11.004;2022-08-03T05:20:55;4.40;;;4.00;;
9729;SDS011;4904;49.152;11.004;2022-08-03T05:23:22;4.65;;;3.50;;
9729;SDS011;4904;49.152;11.004;2022-08-03T05:25:49;7.18;;;4.53;;
9729;SDS011;4904;49.152;11.004;2022-08-03T05:28:16;4.88;;;3.90;;
9729;SDS011;4904;49.152;11.004;2022-08-03T05:30:43;9.15;;;4.47;;
9729;SDS011;4904;49.152;11.004;2022-08-03T05:33:10;5.63;;;4.05;;
9729;SDS011;4904;49.152;11.004;2022-08-03T05:35:37;7.07;;;4.40;;
9729;SDS011;4904;49.152;11.004;2022-08-03T05:38:08;9.05;;;3.85;;
9729;SDS011;4904;49.152;11.004;2022-08-03T05:40:35;12.63;;;4.20;;
9729;SDS011;4904;49.152;11.004;2022-08-03T05:43:02;5.80;;;3.80;;
9729;SDS011;4904;49.152;11.004;2022-08-03T05:45:29;6.63;;;3.85;;
9729;SDS011;4904;49.152;11.004;2022-08-03T05:47:56;10.07;;;4.22;;
9729;SDS011;4904;49.152;11.004;2022-08-03T05:50:23;7.05;;;3.97;;
9729;SDS011;4904;49.152;11.004;2022-08-03T05:52:50;8.38;;;3.97;;
9729;SDS011;4904;49.152;11.004;2022-08-03T05:55:23;13.63;;;4.53;;
9729;SDS011;4904;49.152;11.004;2022-08-03T05:57:50;7.75;;;3.95;;
9729;SDS011;4904;49.152;11.004;2022-08-03T06:00:17;10.00;;;4.10;;
9729;SDS011;4904;49.152;11.004;2022-08-03T06:02:44;9.02;;;4.10;;
9729;SDS011;4904;49.152;11.004;2022-08-03T06:05:11;11.85;;;4.50;;
9729;SDS011;4904;49.152;11.004;2022-08-03T06:07:38;7.85;;;3.42;;
9729;SDS011;4904;49.152;11.004;2022-08-03T06:10:06;8.63;;;3.67;;
9729;SDS011;4904;49.152;11.004;2022-08-03T06:12:35;7.85;;;3.78;;
9729;SDS011;4904;49.152;11.004;2022-08-03T06:15:05;6.13;;;3.50;;
9729;SDS011;4904;49.152;11.004;2022-08-03T06:17:33;7.93;;;3.70;;
9729;SDS011;4904;49.152;11.004;2022-08-03T06:20:00;8.23;;;3.80;;
9729;SDS011;4904;49.152;11.004;2022-08-03T06:22:27;8.73;;;3.60;;
9729;SDS011;4904;49.152;11.004;2022-08-03T06:24:54;7.43;;;3.50;;
9729;SDS011;4904;49.152;11.004;2022-08-03T06:27:22;7.28;;;3.97;;
9729;SDS011;4904;49.152;11.004;2022-08-03T06:29:50;5.82;;;3.55;;
9729;SDS011;4904;49.152;11.004;2022-08-03T06:32:17;6.20;;;3.70;;
9729;SDS011;4904;49.152;11.004;2022-08-03T06:34:46;6.47;;;3.30;;
9729;SDS011;4904;49.152;11.004;2022-08-03T06:37:13;5.05;;;3.50;;
9729;SDS011;4904;49.152;11.004;2022-08-03T06:39:40;4.57;;;3.35;;
9729;SDS011;4904;49.152;11.004;2022-08-03T06:42:07;5.20;;;3.30;;
9729;SDS011;4904;49.152;11.004;2022-08-03T06:44:34;10.18;;;3.03;;
9729;SDS011;4904;49.152;11.004;2022-08-03T06:47:04;6.03;;;3.30;;
9729;SDS011;4904;49.152;11.004;2022-08-03T06:49:31;4.20;;;2.83;;
9729;SDS011;4904;49.152;11.004;2022-08-03T06:51:58;3.50;;;2.92;;
9729;SDS011;4904;49.152;11.004;2022-08-03T06:54:24;2.78;;;2.58;;
9729;SDS011;4904;49.152;11.004;2022-08-03T06:56:52;3.25;;;2.90;;
9729;SDS011;4904;49.152;11.004;2022-08-03T06:59:19;5.55;;;3.13;;
9729;SDS011;4904;49.152;11.004;2022-08-03T07:01:46;5.10;;;3.42;;
9729;SDS011;4904;49.152;11.004;2022-08-03T07:04:14;3.28;;;2.97;;
9729;SDS011;4904;49.152;11.004;2022-08-03T07:06:41;7.60;;;3.20;;
9729;SDS011;4904;49.152;11.004;2022-08-03T07:09:08;5.35;;;2.95;;
9729;SDS011;4904;49.152;11.004;2022-08-03T07:11:35;5.43;;;2.60;;
9729;SDS011;4904;49.152;11.004;2022-08-03T07:14:02;4.20;;;2.92;;
9729;SDS011;4904;49.152;11.004;2022-08-03T07:16:29;5.07;;;2.90;;
9729;SDS011;4904;49.152;11.004;2022-08-03T07:18:56;3.63;;;3.20;;
9729;SDS011;4904;49.152;11.004;2022-08-03T07:21:24;5.82;;;3.22;;
9729;SDS011;4904;49.152;11.004;2022-08-03T07:23:51;3.60;;;2.55;;
9729;SDS011;4904;49.152;11.004;2022-08-03T07:26:18;3.90;;;2.78;;
9729;SDS011;4904;49.152;11.004;2022-08-03T07:28:45;3.58;;;2.70;;
9729;SDS011;4904;49.152;11.004;2022-08-03T07:31:12;6.65;;;2.88;;
9729;SDS011;4904;49.152;11.004;2022-08-03T07:33:39;3.92;;;2.92;;
9729;SDS011;4904;49.152;11.004;2022-08-03T07:36:06;3.72;;;2.97;;
9729;SDS011;4904;49.152;11.004;2022-08-03T07:38:35;8.38;;;3.05;;
9729;SDS011;4904;49.152;11.004;2022-08-03T07:41:02;3.90;;;2.83;;
9729;SDS011;4904;49.152;11.004;2022-08-03T07:43:29;6.15;;;3.00;;
9729;SDS011;4904;49.152;11.004;2022-08-03T07:45:56;4.75;;;2.95;;
9729;SDS011;4904;49.152;11.004;2022-08-03T07:48:23;3.53;;;2.63;;
9729;SDS011;4904;49.152;11.004;2022-08-03T07:50:49;6.18;;;3.00;;
9729;SDS011;4904;49.152;11.004;2022-08-03T07:53:16;4.22;;;2.80;;
9729;SDS011;4904;49.152;11.004;2022-08-03T07:55:45;5.32;;;2.78;;
9729;SDS011;4904;49.152;11.004;2022-08-03T07:58:12;6.03;;;3.10;;
9729;SDS011;4904;49.152;11.004;2022-08-03T08:00:41;6.28;;;3.38;;
9729;SDS011;4904;49.152;11.004;2022-08-03T08:03:09;4.32;;;3.10;;
9729;SDS011;4904;49.152;11.004;2022-08-03T08:05:37;4.38;;;3.10;;
9729;SDS011;4904;49.152;11.004;2022-08-03T08:08:04;4.40;;;3.25;;
9729;SDS011;4904;49.152;11.004;2022-08-03T08:10:32;7.55;;;3.13;;
9729;SDS011;4904;49.152;11.004;2022-08-03T08:13:01;11.32;;;3.08;;
9729;SDS011;4904;49.152;11.004;2022-08-03T08:15:29;8.63;;;3.83;;
9729;SDS011;4904;49.152;11.004;2022-08-03T08:17:57;6.22;;;3.00;;
9729;SDS011;4904;49.152;11.004;2022-08-03T08:20:25;7.32;;;3.17;;
9729;SDS011;4904;49.152;11.004;2022-08-03T08:22:54;6.57;;;2.65;;
9729;SDS011;4904;49.152;11.004;2022-08-03T08:25:21;8.02;;;3.63;;
9729;SDS011;4904;49.152;11.004;2022-08-03T08:27:48;5.05;;;2.30;;
9729;SDS011;4904;49.152;11.004;2022-08-03T08:30:17;4.25;;;2.50;;
9729;SDS011;4904;49.152;11.004;2022-08-03T08:32:45;3.53;;;2.30;;
9729;SDS011;4904;49.152;11.004;2022-08-03T08:35:12;7.10;;;2.53;;
9729;SDS011;4904;49.152;11.004;2022-08-03T08:37:40;4.40;;;2.25;;
9729;SDS011;4904;49.152;11.004;2022-08-03T08:40:07;4.30;;;1.80;;
9729;SDS011;4904;49.152;11.004;2022-08-03T08:42:37;5.95;;;1.90;;
9729;SDS011;4904;49.152;11.004;2022-08-03T08:45:04;2.90;;;1.90;;
9729;SDS011;4904;49.152;11.004;2022-08-03T08:47:35;5.25;;;1.90;;
9729;SDS011;4904;49.152;11.004;2022-08-03T08:50:04;7.38;;;2.28;;
9729;SDS011;4904;49.152;11.004;2022-08-03T08:52:33;3.05;;;1.90;;
9729;SDS011;4904;49.152;11.004;2022-08-03T08:55:02;5.38;;;2.05;;
9729;SDS011;4904;49.152;11.004;2022-08-03T08:57:32;5.35;;;2.17;;
9729;SDS011;4904;49.152;11.004;2022-08-03T09:00:03;3.92;;;2.15;;
9729;SDS011;4904;49.152;11.004;2022-08-03T09:02:34;3.88;;;2.03;;
9729;SDS011;4904;49.152;11.004;2022-08-03T09:05:02;6.55;;;2.40;;
9729;SDS011;4904;49.152;11.004;2022-08-03T09:07:29;7.30;;;2.28;;
9729;SDS011;4904;49.152;11.004;2022-08-03T09:09:56;3.80;;;2.08;;
9729;SDS011;4904;49.152;11.004;2022-08-03T09:12:23;6.45;;;2.20;;
9729;SDS011;4904;49.152;11.004;2022-08-03T09:14:50;3.97;;;2.08;;
9729;SDS011;4904;49.152;11.004;2022-08-03T09:17:17;2.78;;;2.13;;
9729;SDS011;4904;49.152;11.004;2022-08-03T09:20:02;5.03;;;1.80;;
9729;SDS011;4904;49.152;11.004;2022-08-03T09:22:31;3.15;;;1.90;;
9729;SDS011;4904;49.152;11.004;2022-08-03T09:24:59;5.47;;;1.83;;
9729;SDS011;4904;49.152;11.004;2022-08-03T09:27:27;1.92;;;1.83;;
9729;SDS011;4904;49.152;11.004;2022-08-03T09:29:54;2.00;;;1.90;;
9729;SDS011;4904;49.152;11.004;2022-08-03T09:32:23;4.53;;;1.70;;
9729;SDS011;4904;49.152;11.004;2022-08-03T09:34:52;2.88;;;1.83;;
9729;SDS011;4904;49.152;11.004;2022-08-03T09:37:28;3.22;;;1.77;;
9729;SDS011;4904;49.152;11.004;2022-08-03T09:39:55;2.45;;;1.40;;
9729;SDS011;4904;49.152;11.004;2022-08-03T09:42:22;1.52;;;1.42;;
9729;SDS011;4904;49.152;11.004;2022-08-03T09:44:51;2.85;;;1.60;;
9729;SDS011;4904;49.152;11.004;2022-08-03T09:47:26;3.17;;;1.85;;
9729;SDS011;4904;49.152;11.004;2022-08-03T09:49:57;1.42;;;1.33;;
9729;SDS011;4904;49.152;11.004;2022-08-03T09:52:28;4.35;;;1.65;;
9729;SDS011;4904;49.152;11.004;2022-08-03T09:54:56;3.35;;;1.63;;
9729;SDS011;4904;49.152;11.004;2022-08-03T09:57:26;5.13;;;1.70;;
9729;SDS011;4904;49.152;11.004;2022-08-03T10:00:04;1.65;;;1.52;;
9729;SDS011;4904;49.152;11.004;2022-08-03T10:02:36;3.65;;;1.80;;
9729;SDS011;4904;49.152;11.004;2022-08-03T10:05:06;3.00;;;1.50;;
9729;SDS011;4904;49.152;11.004;2022-08-03T10:07:41;1.70;;;1.58;;
9729;SDS011;4904;49.152;11.004;2022-08-03T10:10:09;2.55;;;1.48;;
9729;SDS011;4904;49.152;11.004;2022-08-03T10:12:37;2.75;;;1.60;;
9729;SDS011;4904;49.152;11.004;2022-08-03T10:15:06;2.60;;;1.60;;
9729;SDS011;4904;49.152;11.004;2022-08-03T10:17:33;2.45;;;1.30;;
9729;SDS011;4904;49.152;11.004;2022-08-03T10:20:01;2.10;;;1.58;;
9729;SDS011;4904;49.152;11.004;2022-08-03T10:22:31;4.55;;;1.50;;
9729;SDS011;4904;49.152;11.004;2022-08-03T10:25:02;1.55;;;1.40;;
9729;SDS011;4904;49.152;11.004;2022-08-03T10:27:32;1.77;;;1.67;;
9729;SDS011;4904;49.152;11.004;2022-08-03T10:30:03;1.40;;;1.30;;
9729;SDS011;4904;49.152;11.004;2022-08-03T10:32:33;2.85;;;1.80;;
9729;SDS011;4904;49.152;11.004;2022-08-03T10:35:03;4.40;;;1.58;;
9729;SDS011;4904;49.152;11.004;2022-08-03T10:37:39;2.53;;;1.70;;
9729;SDS011;4904;49.152;11.004;2022-08-03T10:40:09;2.10;;;1.52;;
9729;SDS011;4904;49.152;11.004;2022-08-03T10:42:39;2.13;;;1.60;;
9729;SDS011;4904;49.152;11.004;2022-08-03T10:45:08;3.80;;;1.80;;
9729;SDS011;4904;49.152;11.004;2022-08-03T10:47:41;2.60;;;1.60;;
9729;SDS011;4904;49.152;11.004;2022-08-03T10:50:09;2.67;;;1.45;;
9729;SDS011;4904;49.152;11.004;2022-08-03T10:55:31;1.52;;;1.42;;
9729;SDS011;4904;49.152;11.004;2022-08-03T11:01:13;2.85;;;1.70;;
9729;SDS011;4904;49.152;11.004;2022-08-03T11:06:42;1.63;;;1.52;;
9729;SDS011;4904;49.152;11.004;2022-08-03T11:09:13;2.58;;;1.58;;
9729;SDS011;4904;49.152;11.004;2022-08-03T11:11:44;3.28;;;1.70;;
9729;SDS011;4904;49.152;11.004;2022-08-03T11:14:13;1.55;;;1.45;;
9729;SDS011;4904;49.152;11.004;2022-08-03T11:16:44;3.97;;;1.90;;
9729;SDS011;4904;49.152;11.004;2022-08-03T11:19:14;1.80;;;1.70;;
9729;SDS011;4904;49.152;11.004;2022-08-03T11:21:53;2.08;;;1.42;;
9729;SDS011;4904;49.152;11.004;2022-08-03T11:27:27;1.67;;;1.58;;
9729;SDS011;4904;49.152;11.004;2022-08-03T11:29:59;1.52;;;1.42;;
9729;SDS011;4904;49.152;11.004;2022-08-03T11:35:25;1.80;;;1.67;;
9729;SDS011;4904;49.152;11.004;2022-08-03T11:38:01;1.75;;;1.63;;
9729;SDS011;4904;49.152;11.004;2022-08-03T11:40:31;1.65;;;1.55;;
9729;SDS011;4904;49.152;11.004;2022-08-03T11:43:01;3.65;;;1.70;;
9729;SDS011;4904;49.152;11.004;2022-08-03T11:45:29;1.73;;;1.55;;
9729;SDS011;4904;49.152;11.004;2022-08-03T11:47:56;2.60;;;1.60;;
9729;SDS011;4904;49.152;11.004;2022-08-03T11:50:25;2.20;;;1.75;;
9729;SDS011;4904;49.152;11.004;2022-08-03T11:52:52;1.73;;;1.60;;
9729;SDS011;4904;49.152;11.004;2022-08-03T11:55:19;6.95;;;1.50;;
9729;SDS011;4904;49.152;11.004;2022-08-03T11:57:47;1.60;;;1.50;;
9729;SDS011;4904;49.152;11.004;2022-08-03T12:00:29;1.80;;;1.70;;
9729;SDS011;4904;49.152;11.004;2022-08-03T12:03:02;2.90;;;1.48;;
9729;SDS011;4904;49.152;11.004;2022-08-03T12:05:32;5.85;;;1.75;;
9729;SDS011;4904;49.152;11.004;2022-08-03T12:08:06;1.52;;;1.42;;
9729;SDS011;4904;49.152;11.004;2022-08-03T12:10:34;1.50;;;1.40;;
9729;SDS011;4904;49.152;11.004;2022-08-03T12:13:03;2.58;;;1.70;;
9729;SDS011;4904;49.152;11.004;2022-08-03T12:15:35;2.35;;;1.65;;
9729;SDS011;4904;49.152;11.004;2022-08-03T12:18:12;4.22;;;1.85;;
9729;SDS011;4904;49.152;11.004;2022-08-03T12:20:41;2.15;;;1.95;;
9729;SDS011;4904;49.152;11.004;2022-08-03T12:23:08;3.55;;;1.95;;
9729;SDS011;4904;49.152;11.004;2022-08-03T12:25:36;2.33;;;1.70;;
9729;SDS011;4904;49.152;11.004;2022-08-03T12:28:08;1.67;;;1.58;;
9729;SDS011;4904;49.152;11.004;2022-08-03T12:30:44;1.92;;;1.70;;
9729;SDS011;4904;49.152;11.004;2022-08-03T12:33:16;2.03;;;1.52;;
9729;SDS011;4904;49.152;11.004;2022-08-03T12:35:48;2.28;;;1.90;;
9729;SDS011;4904;49.152;11.004;2022-08-03T12:38:20;2.90;;;1.83;;
9729;SDS011;4904;49.152;11.004;2022-08-03T12:40:54;2.47;;;1.88;;
9729;SDS011;4904;49.152;11.004;2022-08-03T12:43:22;3.83;;;1.88;;
9729;SDS011;4904;49.152;11.004;2022-08-03T12:45:51;3.55;;;1.60;;
9729;SDS011;4904;49.152;11.004;2022-08-03T12:48:32;2.13;;;1.85;;
9729;SDS011;4904;49.152;11.004;2022-08-03T12:51:06;1.55;;;1.45;;
9729;SDS011;4904;49.152;11.004;2022-08-03T12:53:34;2.03;;;1.70;;
9729;SDS011;4904;49.152;11.004;2022-08-03T12:56:01;1.80;;;1.65;;
9729;SDS011;4904;49.152;11.004;2022-08-03T12:58:29;2.20;;;2.08;;
9729;SDS011;4904;49.152;11.004;2022-08-03T13:01:00;3.53;;;2.00;;
9729;SDS011;4904;49.152;11.004;2022-08-03T13:03:27;2.78;;;1.60;;
9729;SDS011;4904;49.152;11.004;2022-08-03T13:05:54;2.22;;;1.67;;
9729;SDS011;4904;49.152;11.004;2022-08-03T13:08:22;2.67;;;1.70;;
9729;SDS011;4904;49.152;11.004;2022-08-03T13:10:50;3.03;;;1.85;;
9729;SDS011;4904;49.152;11.004;2022-08-03T13:13:17;2.90;;;1.90;;
9729;SDS011;4904;49.152;11.004;2022-08-03T13:16:01;3.67;;;1.60;;
9729;SDS011;4904;49.152;11.004;2022-08-03T13:18:28;2.65;;;1.60;;
9729;SDS011;4904;49.152;11.004;2022-08-03T13:20:54;4.75;;;1.52;;
9729;SDS011;4904;49.152;11.004;2022-08-03T13:23:22;3.13;;;1.75;;
9729;SDS011;4904;49.152;11.004;2022-08-03T13:25:49;1.70;;;1.60;;
9729;SDS011;4904;49.152;11.004;2022-08-03T13:28:16;4.32;;;2.00;;
9729;SDS011;4904;49.152;11.004;2022-08-03T13:30:43;3.20;;;1.85;;
9729;SDS011;4904;49.152;11.004;2022-08-03T13:33:11;2.20;;;1.98;;
9729;SDS011;4904;49.152;11.004;2022-08-03T13:35:38;3.33;;;1.90;;
9729;SDS011;4904;49.152;11.004;2022-08-03T13:38:05;1.80;;;1.70;;
9729;SDS011;4904;49.152;11.004;2022-08-03T13:40:32;2.90;;;1.90;;
9729;SDS011;4904;49.152;11.004;2022-08-03T13:43:00;2.15;;;1.58;;
9729;SDS011;4904;49.152;11.004;2022-08-03T13:45:27;1.80;;;1.70;;
9729;SDS011;4904;49.152;11.004;2022-08-03T13:47:54;3.72;;;1.90;;
9729;SDS011;4904;49.152;11.004;2022-08-03T13:50:22;2.90;;;1.58;;
9729;SDS011;4904;49.152;11.004;2022-08-03T13:52:49;4.85;;;1.77;;
9729;SDS011;4904;49.152;11.004;2022-08-03T13:55:16;4.93;;;1.70;;
9729;SDS011;4904;49.152;11.004;2022-08-03T13:57:43;5.15;;;2.10;;
9729;SDS011;4904;49.152;11.004;2022-08-03T14:00:10;1.70;;;1.60;;
9729;SDS011;4904;49.152;11.004;2022-08-03T14:02:38;4.50;;;1.83;;
9729;SDS011;4904;49.152;11.004;2022-08-03T14:05:05;4.53;;;1.77;;
9729;SDS011;4904;49.152;11.004;2022-08-03T14:07:33;7.47;;;2.20;;
9729;SDS011;4904;49.152;11.004;2022-08-03T14:10:00;11.27;;;2.33;;
9729;SDS011;4904;49.152;11.004;2022-08-03T14:12:27;3.47;;;1.70;;
9729;SDS011;4904;49.152;11.004;2022-08-03T14:14:54;4.15;;;1.90;;
9729;SDS011;4904;49.152;11.004;2022-08-03T14:17:21;1.40;;;1.30;;
9729;SDS011;4904;49.152;11.004;2022-08-03T14:19:48;2.75;;;1.75;;
9729;SDS011;4904;49.152;11.004;2022-08-03T14:22:15;3.20;;;2.03;;
9729;SDS011;4904;49.152;11.004;2022-08-03T14:24:44;5.10;;;4.55;;
9729;SDS011;4904;49.152;11.004;2022-08-03T14:27:11;3.63;;;2.88;;
9729;SDS011;4904;49.152;11.004;2022-08-03T14:29:37;2.67;;;1.90;;
9729;SDS011;4904;49.152;11.004;2022-08-03T14:32:04;3.45;;;2.00;;
9729;SDS011;4904;49.152;11.004;2022-08-03T14:34:32;4.10;;;1.83;;
9729;SDS011;4904;49.152;11.004;2022-08-03T14:36:58;2.75;;;1.67;;
9729;SDS011;4904;49.152;11.004;2022-08-03T14:39:25;2.22;;;1.60;;
9729;SDS011;4904;49.152;11.004;2022-08-03T14:41:54;3.70;;;1.75;;
9729;SDS011;4904;49.152;11.004;2022-08-03T14:44:21;1.60;;;1.50;;
9729;SDS011;4904;49.152;11.004;2022-08-03T14:46:47;2.00;;;1.90;;
9729;SDS011;4904;49.152;11.004;2022-08-03T14:49:14;2.30;;;1.80;;
9729;SDS011;4904;49.152;11.004;2022-08-03T14:51:41;3.28;;;1.92;;
9729;SDS011;4904;49.152;11.004;2022-08-03T14:54:08;2.45;;;1.65;;
9729;SDS011;4904;49.152;11.004;2022-08-03T14:56:35;2.03;;;1.90;;
9729;SDS011;4904;49.152;11.004;2022-08-03T14:59:03;2.55;;;1.70;;
9729;SDS011;4904;49.152;11.004;2022-08-03T15:01:30;2.53;;;1.65;;
9729;SDS011;4904;49.152;11.004;2022-08-03T15:03:57;1.92;;;1.50;;
9729;SDS011;4904;49.152;11.004;2022-08-03T15:06:24;3.20;;;1.90;;
9729;SDS011;4904;49.152;11.004;2022-08-03T15:08:51;3.53;;;2.00;;
9729;SDS011;4904;49.152;11.004;2022-08-03T15:11:18;3.08;;;1.90;;
9729;SDS011;4904;49.152;11.004;2022-08-03T15:13:45;4.38;;;1.95;;
9729;SDS011;4904;49.152;11.004;2022-08-03T15:16:14;2.55;;;1.88;;
9729;SDS011;4904;49.152;11.004;2022-08-03T15:18:40;2.08;;;1.98;;
9729;SDS011;4904;49.152;11.004;2022-08-03T15:21:07;1.73;;;1.50;;
9729;SDS011;4904;49.152;11.004;2022-08-03T15:23:34;3.40;;;1.98;;
9729;SDS011;4904;49.152;11.004;2022-08-03T15:26:01;2.47;;;1.77;;